createdAt,value
2019-06-07T00:02:50.129Z,10.32
2019-06-07T00:08:07.011Z,9.00
2019-06-07T00:13:01.498Z,10.18
2019-06-07T00:18:05.366Z,9.60
2019-06-07T00:23:11.380Z,10.78
2019-06-07T00:28:17.390Z,9.67
2019-06-07T00:38:24.779Z,11.40
2019-06-07T00:43:28.710Z,10.68
2019-06-07T00:48:33.145Z,11.30
2019-06-07T00:53:36.796Z,11.00
2019-06-07T00:58:40.397Z,10.35
2019-06-07T01:03:44.526Z,10.23
2019-06-07T01:08:48.418Z,9.70
2019-06-07T01:13:51.742Z,10.10
2019-06-07T01:18:55.889Z,10.10
2019-06-07T01:24:11.991Z,11.03
2019-06-07T01:29:10.052Z,10.72
2019-06-07T01:34:13.344Z,11.50
2019-06-07T01:39:18.822Z,10.82
2019-06-07T01:44:26.028Z,11.10
2019-06-07T01:49:29.763Z,11.15
2019-06-07T01:54:57.386Z,11.65
2019-06-07T01:59:38.718Z,11.23
2019-06-07T02:04:42.009Z,11.85
2019-06-07T02:09:45.319Z,11.00
2019-06-07T02:14:48.637Z,12.47
2019-06-07T02:19:52.053Z,11.57
2019-06-07T02:25:34.411Z,11.83
2019-06-07T02:30:35.185Z,12.47
2019-06-07T02:35:08.926Z,12.13
2019-06-07T02:40:15.055Z,12.25
2019-06-07T02:50:23.112Z,12.25
2019-06-07T02:55:29.566Z,12.63
2019-06-07T03:01:05.648Z,10.77
2019-06-07T03:05:49.390Z,11.38
2019-06-07T03:10:53.054Z,11.30
2019-06-07T03:15:58.273Z,12.55
2019-06-07T03:21:05.645Z,12.33
2019-06-07T03:26:09.830Z,11.78
2019-06-07T03:31:13.510Z,11.00
2019-06-07T03:36:23.961Z,10.98
2019-06-07T03:41:22.574Z,11.50
2019-06-07T03:46:27.326Z,12.20
2019-06-07T03:51:32.901Z,11.73
2019-06-07T03:56:38.618Z,12.13
2019-06-07T04:01:41.860Z,11.88
2019-06-07T04:06:45.198Z,11.93
2019-06-07T04:11:48.526Z,12.05
2019-06-07T04:16:52.549Z,12.30
2019-06-07T04:21:56.060Z,11.95
2019-06-07T04:26:59.429Z,12.60
2019-06-07T04:32:04.432Z,11.48
2019-06-07T04:37:10.119Z,12.30
2019-06-07T04:42:17.637Z,12.55
2019-06-07T04:47:24.854Z,12.85
2019-06-07T04:52:29.955Z,12.82
2019-06-07T04:57:35.434Z,12.30
2019-06-07T05:02:40.882Z,12.23
2019-06-07T05:07:46.205Z,11.93
2019-06-07T05:12:50.807Z,11.60
2019-06-07T05:17:54.337Z,12.60
2019-06-07T05:22:57.770Z,12.23
2019-06-07T05:28:01.247Z,11.93
2019-06-07T05:33:06.316Z,11.83
2019-06-07T05:38:09.759Z,12.30
2019-06-07T05:43:28.729Z,13.32
2019-06-07T05:48:32.170Z,13.35
2019-06-07T05:53:38.499Z,13.25
2019-06-07T06:03:48.278Z,13.48
2019-06-07T06:14:06.567Z,12.78
2019-06-07T06:18:59.710Z,12.65
2019-06-07T06:24:03.017Z,11.80
2019-06-07T06:29:06.314Z,13.35
2019-06-07T06:34:09.639Z,14.50
2019-06-07T06:39:13.387Z,13.00
2019-06-07T06:44:17.881Z,15.48
2019-06-07T06:49:21.439Z,17.12
2019-06-07T06:54:40.079Z,15.32
2019-06-07T06:59:39.053Z,15.15
2019-06-07T07:04:37.819Z,16.10
2019-06-07T07:09:43.838Z,18.10
2019-06-07T07:14:49.486Z,16.10
2019-06-07T07:19:55.397Z,15.70
2019-06-07T07:24:57.790Z,18.00
2019-06-07T07:30:34.641Z,18.37
2019-06-07T07:40:55.753Z,18.47
2019-06-07T07:45:19.537Z,21.70
2019-06-07T07:50:22.980Z,20.10
2019-06-07T07:55:27.966Z,22.45
2019-06-07T08:00:52.368Z,22.07
2019-06-07T08:05:42.888Z,23.80
2019-06-07T08:10:48.034Z,20.65
2019-06-07T08:15:54.432Z,20.62
2019-06-07T08:21:17.235Z,21.12
2019-06-07T08:26:01.448Z,22.87
2019-06-07T08:31:07.382Z,27.87
2019-06-07T08:41:15.103Z,25.27
2019-06-07T08:46:18.857Z,25.25
2019-06-07T08:51:23.522Z,25.68
2019-06-07T08:56:28.127Z,23.23
2019-06-07T09:01:31.717Z,24.47
2019-06-07T09:11:40.333Z,26.27
2019-06-07T09:16:43.790Z,26.68
2019-06-07T09:21:47.571Z,23.75
2019-06-07T09:26:50.888Z,24.12
2019-06-07T09:31:55.932Z,21.97
2019-06-07T09:37:04.291Z,24.12
2019-06-07T09:42:09.962Z,24.00
2019-06-07T09:47:30.691Z,22.55
2019-06-07T09:52:17.608Z,20.82
2019-06-07T09:57:21.299Z,22.55
2019-06-07T10:02:25.809Z,20.68
2019-06-07T10:07:32.007Z,23.90
2019-06-07T10:12:34.663Z,20.57
2019-06-07T10:17:37.981Z,16.73
2019-06-07T10:22:41.690Z,16.67
2019-06-07T10:27:45.107Z,12.40
2019-06-07T10:32:52.131Z,12.90
2019-06-07T10:37:58.142Z,12.25
2019-06-07T10:43:01.293Z,13.00
2019-06-07T10:48:05.677Z,11.40
2019-06-07T10:53:10.740Z,13.93
2019-06-07T10:58:14.325Z,16.27
2019-06-07T11:03:18.370Z,16.70
2019-06-07T11:08:21.869Z,17.30
2019-06-07T11:13:25.601Z,13.60
2019-06-07T11:18:31.103Z,12.13
2019-06-07T11:23:34.733Z,12.13
2019-06-07T11:28:38.389Z,10.45
2019-06-07T11:33:41.688Z,9.43
2019-06-07T11:38:45.000Z,10.35
2019-06-07T11:43:48.319Z,12.45
2019-06-07T11:48:51.595Z,12.00
2019-06-07T11:53:55.581Z,11.03
2019-06-07T11:58:58.878Z,9.57
2019-06-07T12:04:02.793Z,11.75
2019-06-07T12:09:08.422Z,11.30
2019-06-07T12:14:12.888Z,13.60
2019-06-07T12:19:19.809Z,11.88
2019-06-07T12:24:23.618Z,12.33
2019-06-07T12:29:29.485Z,10.63
2019-06-07T12:34:36.011Z,10.03
2019-06-07T12:39:39.332Z,12.53
2019-06-07T12:44:42.656Z,11.33
2019-06-07T12:49:46.151Z,12.07
2019-06-07T12:54:50.713Z,11.12
2019-06-07T13:04:57.341Z,12.73
2019-06-07T13:10:01.545Z,11.13
2019-06-07T13:15:06.226Z,11.57
2019-06-07T13:20:11.850Z,12.58
2019-06-07T13:25:16.263Z,11.38
2019-06-07T13:35:25.483Z,11.10
2019-06-07T13:40:28.890Z,9.75
2019-06-07T13:45:32.206Z,11.22
2019-06-07T13:50:35.515Z,10.82
2019-06-07T13:55:39.601Z,9.63
2019-06-07T14:00:43.800Z,11.05
2019-06-07T14:05:48.164Z,11.15
2019-06-07T14:10:51.863Z,11.55
2019-06-07T14:15:55.945Z,11.30
2019-06-07T14:20:59.731Z,10.78
2019-06-07T14:26:03.614Z,9.40
2019-06-07T14:31:07.246Z,7.40
2019-06-07T14:36:10.629Z,7.15
2019-06-07T14:41:14.771Z,6.30
2019-06-07T14:46:18.047Z,4.87
2019-06-07T14:51:22.007Z,6.12
2019-06-07T14:56:27.032Z,5.60
2019-06-07T15:01:30.787Z,5.92
2019-06-07T15:06:34.964Z,5.20
2019-06-07T15:11:39.231Z,6.55
2019-06-07T15:16:43.709Z,5.53
2019-06-07T15:21:48.441Z,4.80
2019-06-07T15:26:51.842Z,4.33
2019-06-07T15:31:55.893Z,4.42
2019-06-07T15:36:59.830Z,4.95
2019-06-07T15:42:03.489Z,5.28
2019-06-07T15:47:07.462Z,4.10
2019-06-07T15:52:10.814Z,4.90
2019-06-07T15:57:14.101Z,4.80
2019-06-07T16:02:17.857Z,4.45
2019-06-07T16:07:21.535Z,4.20
2019-06-07T16:12:25.516Z,4.28
2019-06-07T16:17:29.661Z,4.95
2019-06-07T16:22:33.648Z,4.55
2019-06-07T16:27:38.375Z,4.97
2019-06-07T16:32:43.927Z,5.10
2019-06-07T16:37:51.608Z,5.22
2019-06-07T16:42:53.284Z,5.47
2019-06-07T16:47:56.800Z,5.35
2019-06-07T16:53:00.561Z,4.87
2019-06-07T16:58:04.823Z,4.87
2019-06-07T17:03:08.156Z,5.47
2019-06-07T17:13:34.115Z,5.50
2019-06-07T17:18:38.892Z,5.22
2019-06-07T17:23:43.786Z,5.83
2019-06-07T17:28:47.783Z,6.42
2019-06-07T17:33:52.397Z,7.37
2019-06-07T17:38:56.079Z,6.97
2019-06-07T17:44:00.491Z,7.60
2019-06-07T17:49:04.461Z,8.15
2019-06-07T17:54:08.226Z,8.45
2019-06-07T17:59:11.653Z,11.38
2019-06-07T18:04:15.188Z,10.82
2019-06-07T18:09:19.054Z,11.03
2019-06-07T18:14:22.838Z,12.55
2019-06-07T18:19:26.143Z,12.28
2019-06-07T18:24:30.232Z,12.40
2019-06-07T18:29:33.598Z,12.95
2019-06-07T18:34:37.495Z,14.53
2019-06-07T18:39:41.462Z,14.30
2019-06-07T18:44:45.044Z,14.68
2019-06-07T18:49:49.557Z,15.50
2019-06-07T18:54:55.038Z,16.07
2019-06-07T18:59:59.498Z,14.50
2019-06-07T19:05:03.033Z,16.07
2019-06-07T19:10:07.242Z,16.90
2019-06-07T19:15:12.166Z,16.12
2019-06-07T19:20:16.869Z,17.00
2019-06-07T19:25:20.823Z,18.10
2019-06-07T19:30:24.135Z,18.57
2019-06-07T19:35:27.740Z,18.87
2019-06-07T19:40:31.133Z,19.23
2019-06-07T19:45:34.891Z,20.00
2019-06-07T19:50:38.452Z,20.37
2019-06-07T19:55:41.936Z,20.30
2019-06-07T20:00:45.788Z,20.32
2019-06-07T20:05:50.353Z,20.48
2019-06-07T20:10:54.465Z,21.68
2019-06-07T20:16:00.819Z,22.93
2019-06-07T20:21:04.968Z,24.12
2019-06-07T20:26:08.895Z,24.20
2019-06-07T20:31:13.268Z,23.25
2019-06-07T20:36:16.707Z,25.30
2019-06-07T20:41:19.997Z,24.70
2019-06-07T20:46:23.671Z,25.70
2019-06-07T20:51:27.418Z,25.95
2019-06-07T20:56:30.882Z,24.90
2019-06-07T21:01:34.925Z,26.80
2019-06-07T21:06:38.281Z,27.20
2019-06-07T21:11:41.636Z,27.40
2019-06-07T21:16:44.970Z,29.27
2019-06-07T21:21:48.329Z,25.20
2019-06-07T21:26:53.544Z,27.80
2019-06-07T21:31:57.129Z,26.67
2019-06-07T21:37:01.711Z,25.82
2019-06-07T21:42:06.058Z,27.40
2019-06-07T21:47:10.595Z,27.50
2019-06-07T21:52:15.457Z,27.70
2019-06-07T21:57:18.892Z,25.92
2019-06-07T22:02:22.321Z,26.75
2019-06-07T22:07:25.678Z,26.48
2019-06-07T22:12:29.108Z,26.87
2019-06-07T22:17:32.788Z,28.10
2019-06-07T22:22:36.165Z,30.65
2019-06-07T22:27:39.455Z,27.55
2019-06-07T22:32:42.781Z,28.02
2019-06-07T22:37:46.446Z,28.02
2019-06-07T22:42:49.812Z,31.00
2019-06-07T22:47:53.358Z,28.90
2019-06-07T22:52:56.663Z,30.52
2019-06-07T22:58:00.737Z,30.45
2019-06-07T23:03:04.630Z,31.02
2019-06-07T23:08:08.981Z,28.80
2019-06-07T23:13:13.547Z,29.10
2019-06-07T23:18:17.713Z,28.20
2019-06-07T23:23:21.984Z,28.35
2019-06-07T23:28:25.507Z,27.52
2019-06-07T23:33:29.540Z,28.83
2019-06-07T23:38:33.226Z,29.55
2019-06-07T23:43:37.087Z,33.30
2019-06-07T23:48:40.474Z,33.80
2019-06-07T23:53:45.642Z,28.80
2019-06-07T23:58:49.006Z,30.90
